createdAt,value
2023-03-21T00:01:54.170Z,5.07
2023-03-21T00:04:23.424Z,4.60
2023-03-21T00:06:50.635Z,3.67
2023-03-21T00:09:18.283Z,4.57
2023-03-21T00:11:45.598Z,4.95
2023-03-21T00:14:14.421Z,4.65
2023-03-21T00:16:41.957Z,6.88
2023-03-21T00:19:10.341Z,5.53
2023-03-21T00:21:49.066Z,4.80
2023-03-21T00:24:23.232Z,5.10
2023-03-21T00:26:51.214Z,4.43
2023-03-21T00:29:19.215Z,5.35
2023-03-21T00:31:47.007Z,4.13
2023-03-21T00:34:13.857Z,6.72
2023-03-21T00:36:40.833Z,3.90
2023-03-21T00:39:08.088Z,5.47
2023-03-21T00:41:42.647Z,3.83
2023-03-21T00:44:15.492Z,5.43
2023-03-21T00:46:54.127Z,3.47
2023-03-21T00:49:27.801Z,3.65
2023-03-21T00:51:55.325Z,3.40
2023-03-21T00:56:51.288Z,3.97
2023-03-21T00:59:18.140Z,2.83
2023-03-21T01:01:46.563Z,3.20
2023-03-21T01:04:16.396Z,3.75
2023-03-21T01:06:44.321Z,3.92
2023-03-21T01:09:19.704Z,5.07
2023-03-21T01:11:46.622Z,3.50
2023-03-21T01:14:22.542Z,4.43
2023-03-21T01:16:53.845Z,5.22
2023-03-21T01:19:37.623Z,3.33
2023-03-21T01:22:08.601Z,5.05
2023-03-21T01:24:40.480Z,4.18
2023-03-21T01:27:10.556Z,4.03
2023-03-21T01:29:37.677Z,4.60
2023-03-21T01:32:04.759Z,3.85
2023-03-21T01:34:31.661Z,4.15
2023-03-21T01:36:58.653Z,3.00
2023-03-21T01:39:25.821Z,2.92
2023-03-21T01:41:52.741Z,3.85
2023-03-21T01:44:25.586Z,5.30
2023-03-21T01:47:09.306Z,6.60
2023-03-21T01:49:45.828Z,5.55
2023-03-21T01:52:37.871Z,3.92
2023-03-21T01:55:18.914Z,3.50
2023-03-21T01:58:08.062Z,4.45
2023-03-21T02:01:04.900Z,3.10
2023-03-21T02:03:50.855Z,3.25
2023-03-21T02:06:52.874Z,3.67
2023-03-21T02:09:34.855Z,4.55
2023-03-21T02:12:04.017Z,4.18
2023-03-21T02:14:34.577Z,2.78
2023-03-21T02:17:34.895Z,5.70
2023-03-21T02:20:39.614Z,5.20
2023-03-21T02:23:25.241Z,4.85
2023-03-21T02:26:55.039Z,3.53
2023-03-21T02:30:28.124Z,5.03
2023-03-21T02:33:40.046Z,6.65
2023-03-21T02:36:31.348Z,4.50
2023-03-21T02:39:27.812Z,4.57
2023-03-21T02:42:17.286Z,2.67
2023-03-21T02:44:57.958Z,3.72
2023-03-21T02:47:53.091Z,2.28
2023-03-21T02:50:43.768Z,4.03
2023-03-21T02:53:16.309Z,2.55
2023-03-21T02:55:45.615Z,3.25
2023-03-21T02:58:17.645Z,7.05
2023-03-21T03:00:50.331Z,3.78
2023-03-21T03:03:34.436Z,2.67
2023-03-21T03:06:08.839Z,2.40
2023-03-21T03:09:31.582Z,3.30
2023-03-21T03:12:31.420Z,3.10
2023-03-21T03:15:45.644Z,2.90
2023-03-21T03:18:42.857Z,3.95
2023-03-21T03:21:25.485Z,3.38
2023-03-21T03:24:10.464Z,3.30
2023-03-21T03:26:57.880Z,3.55
2023-03-21T03:32:28.069Z,3.63
2023-03-21T03:34:56.913Z,3.83
2023-03-21T03:37:33.080Z,6.00
2023-03-21T03:40:20.775Z,4.13
2023-03-21T03:43:04.514Z,5.90
2023-03-21T03:45:43.880Z,3.60
2023-03-21T03:48:27.791Z,3.33
2023-03-21T03:51:05.871Z,3.67
2023-03-21T03:54:00.734Z,4.53
2023-03-21T03:56:29.217Z,4.47
2023-03-21T03:58:57.871Z,2.90
2023-03-21T04:01:41.399Z,5.85
2023-03-21T04:04:13.226Z,2.28
2023-03-21T04:06:41.952Z,3.45
2023-03-21T04:09:19.177Z,4.97
2023-03-21T04:11:47.730Z,4.72
2023-03-21T04:14:15.298Z,3.65
2023-03-21T04:16:43.698Z,4.10
2023-03-21T04:19:10.605Z,3.75
2023-03-21T04:21:37.492Z,3.00
2023-03-21T04:24:05.568Z,6.75
2023-03-21T04:26:33.504Z,4.20
2023-03-21T04:29:20.725Z,3.88
2023-03-21T04:31:59.703Z,5.77
2023-03-21T04:34:28.079Z,3.05
2023-03-21T04:36:58.022Z,3.65
2023-03-21T04:39:25.028Z,5.68
2023-03-21T04:41:52.131Z,3.10
2023-03-21T04:44:19.286Z,3.35
2023-03-21T04:46:46.899Z,3.13
2023-03-21T04:49:14.339Z,3.78
2023-03-21T04:51:45.134Z,4.03
2023-03-21T04:56:42.788Z,4.15
2023-03-21T04:59:13.849Z,3.42
2023-03-21T05:01:41.269Z,2.35
2023-03-21T05:04:11.081Z,6.13
2023-03-21T05:06:39.455Z,5.18
2023-03-21T05:09:06.972Z,2.97
2023-03-21T05:11:37.734Z,4.03
2023-03-21T05:16:34.648Z,4.40
2023-03-21T05:19:05.733Z,3.72
2023-03-21T05:21:43.330Z,2.53
2023-03-21T05:24:19.360Z,2.67
2023-03-21T05:26:55.948Z,4.22
2023-03-21T05:29:25.102Z,2.72
2023-03-21T05:32:03.756Z,4.57
2023-03-21T05:34:30.781Z,2.88
2023-03-21T05:36:57.642Z,3.28
2023-03-21T05:39:29.066Z,2.83
2023-03-21T05:42:03.556Z,4.47
2023-03-21T05:44:31.004Z,7.53
2023-03-21T05:46:58.834Z,3.38
2023-03-21T05:49:34.995Z,2.67
2023-03-21T05:52:03.166Z,4.15
2023-03-21T05:54:30.574Z,4.57
2023-03-21T05:56:57.689Z,3.92
2023-03-21T05:59:38.810Z,4.75
2023-03-21T06:02:07.296Z,4.78
2023-03-21T06:04:34.157Z,4.25
2023-03-21T06:07:01.204Z,3.40
2023-03-21T06:09:28.634Z,6.90
2023-03-21T06:11:59.547Z,4.03
2023-03-21T06:14:47.011Z,5.90
2023-03-21T06:17:21.468Z,4.03
2023-03-21T06:19:53.558Z,3.78
2023-03-21T06:22:43.026Z,4.43
2023-03-21T06:25:11.155Z,5.70
2023-03-21T06:27:38.080Z,3.22
2023-03-21T06:30:08.196Z,3.80
2023-03-21T06:32:42.282Z,3.50
2023-03-21T06:35:13.817Z,3.75
2023-03-21T06:37:40.773Z,4.38
2023-03-21T06:40:11.059Z,3.08
2023-03-21T06:42:38.071Z,4.88
2023-03-21T06:45:10.357Z,4.35
2023-03-21T06:47:37.322Z,3.97
2023-03-21T06:50:10.625Z,4.00
2023-03-21T06:52:41.583Z,5.10
2023-03-21T06:55:09.213Z,4.38
2023-03-21T06:57:36.144Z,3.60
2023-03-21T07:00:05.375Z,4.82
2023-03-21T07:02:32.669Z,7.10
2023-03-21T07:05:10.618Z,5.57
2023-03-21T07:07:37.573Z,4.18
2023-03-21T07:10:05.779Z,4.78
2023-03-21T07:12:43.527Z,6.37
2023-03-21T07:15:20.662Z,3.67
2023-03-21T07:17:47.840Z,4.57
2023-03-21T07:20:14.650Z,3.50
2023-03-21T07:22:42.948Z,3.72
2023-03-21T07:25:10.724Z,4.28
2023-03-21T07:27:41.086Z,6.30
2023-03-21T07:30:10.325Z,7.03
2023-03-21T07:32:37.949Z,7.45
2023-03-21T07:35:07.948Z,4.65
2023-03-21T07:37:37.555Z,4.82
2023-03-21T07:42:41.435Z,3.03
2023-03-21T07:45:16.026Z,4.32
2023-03-21T07:47:45.275Z,3.13
2023-03-21T07:50:12.518Z,5.30
2023-03-21T07:52:39.652Z,4.22
2023-03-21T07:55:06.871Z,6.25
2023-03-21T07:57:33.878Z,5.35
2023-03-21T08:00:00.903Z,3.83
2023-03-21T08:02:27.874Z,4.07
2023-03-21T08:04:54.706Z,4.75
2023-03-21T08:07:21.606Z,3.70
2023-03-21T08:09:48.487Z,5.07
2023-03-21T08:12:15.332Z,6.07
2023-03-21T08:14:42.184Z,4.47
2023-03-21T08:17:09.520Z,2.65
2023-03-21T08:19:37.443Z,3.75
2023-03-21T08:22:06.593Z,3.67
2023-03-21T08:24:34.084Z,3.43
2023-03-21T08:27:01.722Z,2.75
2023-03-21T08:29:28.794Z,4.30
2023-03-21T08:31:55.781Z,4.13
2023-03-21T08:34:23.061Z,3.35
2023-03-21T08:36:50.012Z,3.40
2023-03-21T08:39:16.820Z,3.17
2023-03-21T08:41:44.193Z,4.05
2023-03-21T08:44:11.212Z,2.75
2023-03-21T08:46:38.055Z,3.67
2023-03-21T08:49:05.500Z,3.75
2023-03-21T08:51:33.513Z,2.65
2023-03-21T08:54:00.373Z,2.70
2023-03-21T08:56:27.232Z,2.80
2023-03-21T08:58:54.066Z,2.83
2023-03-21T09:01:21.110Z,3.63
2023-03-21T09:03:47.930Z,4.18
2023-03-21T09:06:15.666Z,4.68
2023-03-21T09:08:43.256Z,3.53
2023-03-21T09:11:10.659Z,4.45
2023-03-21T09:13:37.566Z,2.92
2023-03-21T09:16:05.102Z,3.47
2023-03-21T09:18:49.403Z,3.92
2023-03-21T09:21:18.256Z,4.72
2023-03-21T09:23:45.318Z,2.03
2023-03-21T09:26:13.472Z,2.78
2023-03-21T09:28:40.534Z,5.15
2023-03-21T09:31:11.143Z,4.30
2023-03-21T09:33:41.152Z,2.78
2023-03-21T09:38:43.027Z,2.83
2023-03-21T09:41:40.407Z,3.70
2023-03-21T09:44:41.142Z,3.70
2023-03-21T09:47:29.269Z,2.97
2023-03-21T09:50:14.129Z,2.60
2023-03-21T09:53:08.870Z,1.77
2023-03-21T09:55:39.563Z,2.03
2023-03-21T09:58:33.181Z,2.70
2023-03-21T10:01:10.297Z,2.05
2023-03-21T10:03:38.205Z,3.10
2023-03-21T10:06:15.205Z,3.25
2023-03-21T10:08:45.778Z,3.20
2023-03-21T10:11:29.221Z,2.90
2023-03-21T10:14:06.180Z,2.60
2023-03-21T10:16:37.780Z,3.58
2023-03-21T10:19:12.365Z,1.95
2023-03-21T10:22:00.883Z,2.78
2023-03-21T10:24:32.583Z,5.32
2023-03-21T10:27:00.623Z,3.97
2023-03-21T10:29:33.161Z,1.48
2023-03-21T10:32:00.716Z,2.40
2023-03-21T10:34:46.137Z,1.73
2023-03-21T10:37:14.616Z,2.25
2023-03-21T10:39:44.360Z,1.98
2023-03-21T10:42:32.776Z,3.15
2023-03-21T10:44:59.751Z,3.42
2023-03-21T10:47:31.459Z,1.88
2023-03-21T10:50:13.487Z,2.72
2023-03-21T10:52:50.214Z,3.53
2023-03-21T10:55:31.964Z,2.35
2023-03-21T10:58:18.778Z,2.33
2023-03-21T11:00:48.005Z,1.83
2023-03-21T11:03:32.181Z,1.77
2023-03-21T11:06:08.741Z,1.05
2023-03-21T11:08:47.722Z,1.60
2023-03-21T11:11:28.113Z,1.15
2023-03-21T11:14:08.797Z,2.88
2023-03-21T11:16:43.434Z,1.73
2023-03-21T11:19:20.404Z,2.17
2023-03-21T11:21:47.417Z,1.80
2023-03-21T11:24:17.965Z,3.63
2023-03-21T11:26:48.235Z,4.57
2023-03-21T11:29:31.898Z,3.42
2023-03-21T11:32:12.247Z,2.28
2023-03-21T11:34:53.691Z,3.47
2023-03-21T11:37:38.071Z,1.50
2023-03-21T11:40:31.646Z,3.28
2023-03-21T11:43:22.190Z,2.72
2023-03-21T11:46:13.457Z,2.65
2023-03-21T11:48:44.977Z,2.03
2023-03-21T11:51:39.794Z,3.03
2023-03-21T11:54:33.747Z,1.85
2023-03-21T11:57:26.431Z,2.67
2023-03-21T12:00:23.789Z,1.13
2023-03-21T12:03:41.447Z,1.90
2023-03-21T12:06:28.988Z,3.17
2023-03-21T12:09:07.321Z,2.85
2023-03-21T12:12:07.633Z,3.80
2023-03-21T12:14:58.894Z,3.13
2023-03-21T12:17:59.674Z,2.10
2023-03-21T12:20:40.966Z,2.67
2023-03-21T12:23:57.911Z,1.90
2023-03-21T12:27:10.768Z,1.98
2023-03-21T12:30:11.204Z,1.15
2023-03-21T12:33:17.160Z,4.15
2023-03-21T12:36:14.213Z,2.67
2023-03-21T12:38:49.873Z,2.20
2023-03-21T12:41:34.151Z,3.28
2023-03-21T12:44:16.846Z,2.25
2023-03-21T12:47:02.389Z,2.38
2023-03-21T12:49:39.485Z,2.60
2023-03-21T12:52:12.575Z,3.17
2023-03-21T12:55:02.978Z,2.65
2023-03-21T12:57:40.229Z,3.75
2023-03-21T13:00:22.514Z,2.85
2023-03-21T13:03:11.901Z,5.15
2023-03-21T13:06:04.676Z,4.72
2023-03-21T13:08:41.931Z,3.22
2023-03-21T13:11:13.426Z,3.08
2023-03-21T13:14:05.838Z,5.10
2023-03-21T13:16:41.331Z,6.70
2023-03-21T13:19:33.878Z,3.42
2023-03-21T13:22:26.763Z,3.00
2023-03-21T13:25:15.266Z,7.88
2023-03-21T13:27:43.995Z,3.78
2023-03-21T13:30:25.987Z,3.65
2023-03-21T13:33:10.215Z,2.92
2023-03-21T13:35:42.429Z,5.50
2023-03-21T13:38:26.792Z,4.43
2023-03-21T13:41:07.311Z,2.50
2023-03-21T13:43:45.950Z,2.85
2023-03-21T13:46:53.635Z,4.13
2023-03-21T13:49:36.080Z,3.00
2023-03-21T13:52:27.793Z,3.75
2023-03-21T13:54:57.142Z,5.65
2023-03-21T13:57:26.782Z,3.40
2023-03-21T14:00:29.326Z,3.58
2023-03-21T14:03:06.678Z,3.78
2023-03-21T14:05:35.288Z,7.50
2023-03-21T14:08:15.381Z,4.03
2023-03-21T14:10:47.695Z,6.20
2023-03-21T14:13:21.495Z,4.45
2023-03-21T14:15:56.302Z,3.80
2023-03-21T14:18:34.952Z,3.72
2023-03-21T14:21:04.934Z,5.93
2023-03-21T14:23:31.894Z,4.55
2023-03-21T14:25:59.120Z,6.22
2023-03-21T14:28:29.448Z,3.55
2023-03-21T14:31:00.435Z,3.42
2023-03-21T14:33:41.387Z,6.07
2023-03-21T14:36:15.871Z,2.90
2023-03-21T14:38:42.871Z,2.78
2023-03-21T14:41:24.938Z,7.07
2023-03-21T14:44:15.895Z,4.40
2023-03-21T14:46:45.001Z,4.22
2023-03-21T14:49:25.843Z,3.75
2023-03-21T14:51:56.810Z,6.55
2023-03-21T14:54:25.170Z,2.67
2023-03-21T14:57:03.886Z,5.63
2023-03-21T14:59:36.493Z,4.80
2023-03-21T15:02:22.989Z,4.30
2023-03-21T15:04:54.470Z,2.40
2023-03-21T15:07:32.332Z,5.30
2023-03-21T15:10:04.696Z,4.35
2023-03-21T15:12:33.183Z,4.72
2023-03-21T15:15:01.584Z,5.28
2023-03-21T15:17:29.182Z,3.00
2023-03-21T15:19:56.027Z,6.10
2023-03-21T15:22:40.787Z,7.30
2023-03-21T15:25:17.990Z,3.78
2023-03-21T15:27:45.047Z,6.07
2023-03-21T15:30:30.255Z,4.28
2023-03-21T15:32:59.263Z,4.07
2023-03-21T15:35:36.260Z,2.07
2023-03-21T15:38:05.762Z,3.97
2023-03-21T15:43:19.315Z,8.43
2023-03-21T15:45:55.564Z,3.97
2023-03-21T15:48:28.185Z,3.15
2023-03-21T15:51:06.046Z,3.05
2023-03-21T15:53:37.715Z,2.75
2023-03-21T15:56:06.474Z,2.72
2023-03-21T15:58:41.294Z,4.45
2023-03-21T16:01:22.021Z,7.22
2023-03-21T16:03:58.850Z,3.85
2023-03-21T16:06:36.587Z,2.25
2023-03-21T16:09:13.967Z,4.00
2023-03-21T16:11:50.666Z,2.88
2023-03-21T16:14:18.732Z,3.35
2023-03-21T16:16:46.511Z,2.45
2023-03-21T16:19:13.962Z,6.15
2023-03-21T16:21:42.047Z,2.67
2023-03-21T16:24:11.701Z,3.75
2023-03-21T16:26:46.073Z,3.70
2023-03-21T16:29:15.425Z,2.60
2023-03-21T16:31:43.451Z,2.60
2023-03-21T16:34:10.775Z,3.90
2023-03-21T16:36:40.411Z,5.55
2023-03-21T16:39:24.619Z,5.45
2023-03-21T16:41:51.552Z,3.63
2023-03-21T16:44:19.217Z,6.07
2023-03-21T16:46:47.126Z,4.50
2023-03-21T16:49:24.603Z,4.13
2023-03-21T16:51:52.585Z,5.00
2023-03-21T16:54:19.485Z,2.95
2023-03-21T16:56:53.637Z,4.38
2023-03-21T16:59:21.554Z,4.18
2023-03-21T17:01:48.912Z,4.07
2023-03-21T17:04:17.846Z,3.58
2023-03-21T17:06:54.591Z,2.80
2023-03-21T17:09:26.263Z,16.40
2023-03-21T17:11:53.139Z,21.60
2023-03-21T17:14:21.467Z,45.10
2023-03-21T17:16:49.181Z,31.45
2023-03-21T17:19:23.892Z,24.67
2023-03-21T17:21:50.894Z,9.02
2023-03-21T17:24:17.721Z,7.57
2023-03-21T17:26:44.740Z,5.30
2023-03-21T17:29:14.039Z,3.72
2023-03-21T17:31:41.012Z,3.53
2023-03-21T17:34:08.405Z,3.60
2023-03-21T17:36:39.538Z,4.15
2023-03-21T17:39:11.783Z,4.45
2023-03-21T17:41:39.003Z,6.03
2023-03-21T17:44:06.333Z,6.43
2023-03-21T17:46:39.319Z,10.77
2023-03-21T17:49:06.968Z,5.80
2023-03-21T17:51:33.910Z,6.20
2023-03-21T17:54:01.217Z,4.07
2023-03-21T17:56:31.606Z,5.18
2023-03-21T17:59:04.199Z,5.35
2023-03-21T18:01:32.070Z,3.80
2023-03-21T18:04:02.053Z,4.78
2023-03-21T18:08:55.870Z,4.03
2023-03-21T18:11:23.967Z,4.38
2023-03-21T18:13:51.373Z,4.43
2023-03-21T18:16:23.730Z,3.53
2023-03-21T18:18:53.744Z,3.83
2023-03-21T18:23:50.486Z,4.75
2023-03-21T18:26:23.831Z,4.97
2023-03-21T18:29:43.924Z,6.55
2023-03-21T18:31:38.160Z,4.95
2023-03-21T18:34:05.148Z,7.18
2023-03-21T18:36:32.069Z,4.72
2023-03-21T18:38:58.946Z,5.45
2023-03-21T18:41:25.946Z,6.30
2023-03-21T18:44:01.562Z,5.03
2023-03-21T18:46:41.712Z,9.10
2023-03-21T18:49:48.462Z,7.05
2023-03-21T18:51:55.807Z,6.55
2023-03-21T18:54:23.384Z,6.68
2023-03-21T18:57:34.605Z,5.43
2023-03-21T18:59:39.111Z,5.90
2023-03-21T19:02:06.701Z,8.77
2023-03-21T19:04:34.124Z,8.55
2023-03-21T19:07:01.211Z,8.30
2023-03-21T19:09:31.807Z,8.48
2023-03-21T19:12:03.170Z,6.85
2023-03-21T19:14:30.558Z,8.30
2023-03-21T19:17:47.549Z,6.93
2023-03-21T19:19:46.331Z,7.10
2023-03-21T19:22:13.475Z,6.82
2023-03-21T19:24:41.369Z,5.20
2023-03-21T19:27:09.586Z,5.15
2023-03-21T19:29:36.429Z,4.78
2023-03-21T19:32:03.282Z,5.93
2023-03-21T19:34:30.097Z,5.07
2023-03-21T19:36:57.404Z,4.35
2023-03-21T19:39:25.006Z,4.47
2023-03-21T19:41:55.413Z,4.45
2023-03-21T19:44:32.685Z,5.97
2023-03-21T19:46:59.481Z,6.38
2023-03-21T19:49:37.011Z,6.00
2023-03-21T19:52:13.378Z,5.40
2023-03-21T19:54:40.200Z,5.43
2023-03-21T19:57:09.525Z,6.30
2023-03-21T19:59:36.422Z,5.80
2023-03-21T20:02:27.145Z,8.43
2023-03-21T20:04:50.786Z,12.50
2023-03-21T20:07:17.581Z,9.35
2023-03-21T20:09:52.344Z,8.98
2023-03-21T20:12:21.878Z,6.40
2023-03-21T20:14:49.243Z,5.20
2023-03-21T20:17:16.682Z,4.40
2023-03-21T20:19:43.534Z,5.13
2023-03-21T20:22:21.734Z,6.55
2023-03-21T20:24:54.939Z,3.35
2023-03-21T20:27:24.977Z,3.70
2023-03-21T20:30:09.821Z,4.85
2023-03-21T20:32:42.871Z,3.85
2023-03-21T20:35:20.637Z,17.80
2023-03-21T20:37:54.218Z,10.50
2023-03-21T20:40:21.650Z,5.25
2023-03-21T20:42:49.136Z,4.25
2023-03-21T20:45:17.455Z,4.70
2023-03-21T20:47:44.343Z,3.33
2023-03-21T20:50:13.896Z,3.55
2023-03-21T20:53:07.047Z,3.40
2023-03-21T20:55:31.275Z,3.55
2023-03-21T20:57:58.053Z,3.15
2023-03-21T21:00:24.905Z,3.67
2023-03-21T21:02:51.812Z,5.93
2023-03-21T21:05:28.017Z,4.40
2023-03-21T21:07:56.415Z,4.63
2023-03-21T21:10:23.407Z,15.13
2023-03-21T21:12:50.607Z,7.22
2023-03-21T21:15:17.746Z,5.80
2023-03-21T21:20:33.492Z,4.55
2023-03-21T21:23:00.982Z,4.07
2023-03-21T21:25:31.689Z,2.80
2023-03-21T21:27:58.527Z,2.95
2023-03-21T21:30:25.449Z,3.63
2023-03-21T21:32:52.326Z,3.47
2023-03-21T21:35:20.547Z,3.53
2023-03-21T21:37:47.874Z,4.75
2023-03-21T21:40:20.162Z,3.97
2023-03-21T21:42:47.000Z,3.85
2023-03-21T21:45:15.658Z,4.25
2023-03-21T21:47:44.496Z,8.10
2023-03-21T21:50:12.163Z,10.10
2023-03-21T21:52:38.956Z,14.77
2023-03-21T21:55:06.356Z,14.05
2023-03-21T21:57:34.262Z,14.07
2023-03-21T22:00:06.013Z,9.82
2023-03-21T22:02:39.913Z,6.88
2023-03-21T22:05:08.645Z,5.95
2023-03-21T22:07:36.211Z,5.22
2023-03-21T22:10:03.643Z,6.47
2023-03-21T22:12:30.422Z,5.93
2023-03-21T22:14:57.237Z,6.50
2023-03-21T22:17:24.035Z,6.30
2023-03-21T22:20:04.683Z,4.60
2023-03-21T22:22:36.486Z,5.13
2023-03-21T22:25:09.746Z,4.53
2023-03-21T22:27:37.126Z,5.63
2023-03-21T22:30:07.444Z,3.75
2023-03-21T22:32:36.477Z,4.75
2023-03-21T22:35:04.803Z,3.97
2023-03-21T22:37:34.079Z,5.47
2023-03-21T22:40:01.290Z,5.95
2023-03-21T22:42:28.568Z,5.50
2023-03-21T22:44:55.368Z,5.00
2023-03-21T22:47:22.167Z,6.47
2023-03-21T22:49:48.998Z,8.15
2023-03-21T22:52:15.972Z,7.32
2023-03-21T22:54:42.844Z,7.97
2023-03-21T22:57:09.656Z,7.60
2023-03-21T22:59:36.485Z,6.05
2023-03-21T23:02:03.449Z,7.63
2023-03-21T23:04:31.285Z,7.10
2023-03-21T23:06:58.808Z,6.22
2023-03-21T23:09:25.765Z,5.10
2023-03-21T23:11:52.613Z,4.78
2023-03-21T23:14:20.964Z,4.55
2023-03-21T23:16:53.183Z,3.70
2023-03-21T23:19:21.491Z,6.55
2023-03-21T23:21:48.499Z,6.75
2023-03-21T23:24:16.132Z,5.97
2023-03-21T23:26:43.092Z,5.72
2023-03-21T23:29:10.960Z,4.40
2023-03-21T23:31:38.280Z,5.30
2023-03-21T23:34:05.756Z,5.22
2023-03-21T23:36:32.741Z,5.80
2023-03-21T23:38:59.554Z,4.15
2023-03-21T23:41:26.657Z,6.68
2023-03-21T23:43:53.478Z,4.20
2023-03-21T23:46:20.509Z,4.40
2023-03-21T23:48:47.707Z,3.85
2023-03-21T23:51:16.842Z,4.03
2023-03-21T23:53:45.697Z,3.75
2023-03-21T23:56:21.815Z,4.53
2023-03-21T23:58:49.994Z,4.45
